createdAt,value
2023-01-02T09:24:25.917Z,71.37207031
2023-01-02T09:24:32.964Z,71.41113281
2023-01-02T09:25:35.978Z,71.28320313
2023-01-02T09:26:33.718Z,71.30957031
2023-01-02T09:27:31.216Z,72.61425781
2023-01-02T09:28:32.409Z,73.22851563
2023-01-02T09:29:29.938Z,73.50390625
2023-01-02T09:30:31.061Z,73.87011719
2023-01-02T09:31:30.131Z,74.36425781
2023-01-02T09:33:24.761Z,75.63183594
2023-01-02T09:34:23.053Z,76.26855469
2023-01-02T09:35:19.978Z,76.96191406
2023-01-02T09:36:18.571Z,76.89355469
2023-01-02T09:38:18.818Z,77.31152344
2023-01-02T09:39:15.509Z,78.01953125
2023-01-02T09:40:21.874Z,78.31835938
2023-01-02T09:41:11.715Z,78.28417969
2023-01-02T09:42:07.551Z,78.38085938
2023-01-02T09:43:20.206Z,79.03808594
2023-01-02T09:44:13.693Z,79.18261719
2023-01-02T09:45:09.303Z,79.27734375
2023-01-02T09:46:07.490Z,79.37207031
2023-01-02T09:48:01.276Z,79.62792969
2023-01-02T09:48:56.632Z,79.66992188
2023-01-02T09:49:52.559Z,79.96582031
2023-01-02T09:50:56.682Z,79.83984375
2023-01-02T09:51:07.759Z,80.02832031
2023-01-02T09:53:00.244Z,79.80761719
2023-01-02T09:53:58.447Z,79.93847656
2023-01-02T09:54:57.839Z,79.80664063
2023-01-02T09:56:23.077Z,80.05078125
2023-01-02T09:58:03.460Z,80.34179688
2023-01-02T09:59:04.835Z,80.34472656
2023-01-02T10:00:04.819Z,79.95410156
2023-01-02T10:01:03.976Z,80.32226563
2023-01-02T10:03:05.976Z,80.79003906
2023-01-02T10:03:08.288Z,80.79003906
2023-01-02T10:04:04.357Z,81.26660156
2023-01-02T10:05:00.834Z,80.56445313
2023-01-02T10:06:05.227Z,80.640625
2023-01-02T10:06:59.520Z,80.93261719
2023-01-02T10:08:01.447Z,80.97558594
2023-01-02T10:08:59.531Z,80.84765625
2023-01-02T10:10:00.641Z,80.96875
2023-01-02T10:10:56.044Z,80.67578125
2023-01-02T10:12:54.900Z,81.52050781
2023-01-02T10:14:18.895Z,81.67285156
2023-01-02T10:14:53.245Z,81.60449219
2023-01-02T10:15:54.931Z,81.47460938
2023-01-02T10:17:52.827Z,81.84472656
2023-01-02T10:18:50.259Z,81.93261719
2023-01-02T10:19:50.146Z,81.796875
2023-01-02T10:20:45.159Z,82.03027344
2023-01-02T10:21:44.791Z,81.97265625
2023-01-02T10:22:44.815Z,81.93554688
2023-01-02T10:23:41.355Z,82.15820313
2023-01-02T10:24:47.911Z,82.2109375
2023-01-02T10:25:45.622Z,82.00585938
2023-01-02T10:25:52.753Z,82.00585938
2023-01-02T10:25:53.204Z,82.00585938
2023-01-02T10:26:47.802Z,82.04296875
2023-01-02T10:28:53.964Z,81.38085938
2023-01-02T10:29:47.249Z,81.57128906
2023-01-02T10:30:53.516Z,81.46191406
2023-01-02T10:31:51.441Z,81.515625
2023-01-02T10:33:44.618Z,81.97558594
2023-01-02T10:35:10.208Z,81.8828125
2023-01-02T10:35:54.128Z,81.65820313
2023-01-02T10:37:51.998Z,81.16503906
2023-01-02T10:38:52.054Z,81.27246094
2023-01-02T10:39:55.783Z,81.27539063
2023-01-02T10:40:56.426Z,81.35449219
2023-01-02T10:42:59.768Z,81.4765625
2023-01-02T10:43:57.792Z,81.47167969
2023-01-02T10:44:53.326Z,81.65039063
2023-01-02T10:45:54.706Z,81.68457031
2023-01-02T10:47:51.137Z,81.65820313
2023-01-02T10:48:52.297Z,81.77050781
2023-01-02T10:49:48.189Z,81.6640625
2023-01-02T10:50:44.757Z,81.86621094
2023-01-02T10:51:43.071Z,81.96679688
2023-01-02T10:52:43.617Z,82.18945313
2023-01-02T10:53:38.795Z,82.56835938
2023-01-02T10:54:48.354Z,82.46582031
2023-01-02T10:54:51.128Z,82.46582031
2023-01-02T10:55:40.172Z,82.28808594
2023-01-02T10:56:43.638Z,82.19628906
2023-01-02T10:57:37.287Z,82.0078125
2023-01-02T10:58:47.990Z,81.71679688
2023-01-02T10:59:45.367Z,81.50195313
2023-01-02T11:00:43.058Z,81.55957031
2023-01-02T11:01:46.656Z,81.6015625
2023-01-02T11:02:43.368Z,81.890625
2023-01-02T11:03:47.751Z,82.23242188
2023-01-02T11:04:44.869Z,82.20898438
2023-01-02T11:05:46.565Z,82.17382813
2023-01-02T11:06:43.631Z,82.02050781
2023-01-02T11:07:48.102Z,82.15429688
2023-01-02T11:08:44.377Z,82.10644531
2023-01-02T11:09:47.651Z,82.62011719
2023-01-02T11:10:49.229Z,82.54296875
2023-01-02T11:11:18.837Z,82.54296875
2023-01-02T11:13:16.359Z,82.24316406
2023-01-02T11:13:40.624Z,82.22167969
2023-01-02T11:14:45.304Z,81.62597656
2023-01-02T11:15:47.387Z,81.47363281
2023-01-02T11:16:46.432Z,81.64648438
2023-01-02T11:18:55.067Z,81.65917969
2023-01-02T11:20:00.193Z,81.59472656
2023-01-02T11:20:57.385Z,81.46777344
2023-01-02T11:23:04.780Z,81.73828125
2023-01-02T11:24:10.797Z,81.94042969
2023-01-02T11:25:09.949Z,82.16308594
2023-01-02T11:26:12.309Z,82.36132813
2023-01-02T11:28:11.524Z,82.40917969
2023-01-02T11:29:14.060Z,82.4296875
2023-01-02T11:30:14.370Z,82.62988281
2023-01-02T11:31:15.401Z,82.52441406
2023-01-02T11:33:17.499Z,82.58789063
2023-01-02T11:34:14.121Z,82.49023438
2023-01-02T11:35:10.468Z,82.31445313
2023-01-02T11:36:17.226Z,82.44726563
2023-01-02T11:38:16.870Z,82.64257813
2023-01-02T11:39:17.860Z,82.6953125
2023-01-02T11:40:20.478Z,82.77539063
2023-01-02T11:41:22.337Z,82.828125
2023-01-02T11:42:26.525Z,83.07226563
2023-01-02T11:43:28.649Z,83.0546875
2023-01-02T11:44:28.393Z,82.95019531
2023-01-02T11:45:31.589Z,83.0703125
2023-01-02T11:46:56.536Z,82.86816406
2023-01-02T11:47:38.097Z,82.8515625
2023-01-02T11:48:42.903Z,82.73339844
2023-01-02T11:49:35.787Z,82.60742188
2023-01-02T11:50:35.615Z,82.72363281
2023-01-02T11:51:34.121Z,82.30957031
2023-01-02T11:53:31.762Z,82.7890625
2023-01-02T11:54:31.595Z,83.046875
2023-01-02T11:55:34.251Z,82.90917969
2023-01-02T11:56:37.710Z,82.73925781
2023-01-02T11:58:34.775Z,82.5625
2023-01-02T11:59:28.106Z,82.78613281
2023-01-02T12:00:28.078Z,82.84082031
2023-01-02T12:02:51.355Z,82.74414063
2023-01-02T12:03:31.403Z,83.11523438
2023-01-02T12:05:40.634Z,83.07910156
2023-01-02T12:06:17.440Z,82.91699219
2023-01-02T12:07:17.670Z,82.74023438
2023-01-02T12:08:16.125Z,82.140625
2023-01-02T12:09:21.232Z,81.75
2023-01-02T12:12:21.217Z,82.2890625
2023-01-02T12:13:06.723Z,82.0234375
2023-01-02T12:17:48.941Z,80.80859375
2023-01-02T12:17:57.106Z,79.99023438
2023-01-02T12:37:28.351Z,76.43945313
2023-01-02T12:47:33.751Z,75.34472656
2023-01-02T12:52:56.785Z,75.37011719
2023-01-02T13:03:00.300Z,74.98339844
2023-01-02T13:03:25.463Z,74.54589844
2023-01-02T13:04:24.556Z,74.36425781
2023-01-02T13:05:26.921Z,74.24902344
2023-01-02T13:06:44.907Z,74.83691406
2023-01-02T13:06:45.245Z,74.83691406
2023-01-02T13:06:45.477Z,74.83691406
2023-01-02T13:08:19.586Z,74.93066406
2023-01-02T13:10:25.165Z,75.23730469
2023-01-02T13:11:05.304Z,76.08789063
2023-01-02T13:13:06.166Z,75.6171875
2023-01-02T13:22:39.638Z,74.43164063
2023-01-02T13:27:43.161Z,73.31640625
2023-01-02T13:32:52.979Z,71.80175781
2023-01-02T13:38:10.033Z,71.74316406
2023-01-02T13:38:20.110Z,71.22460938
2023-01-02T13:39:22.541Z,71.29394531
2023-01-02T13:40:20.246Z,70.9921875
2023-01-02T13:41:17.134Z,71.41894531
2023-01-02T13:42:18.521Z,72.27832031
2023-01-02T13:43:18.473Z,73.56640625
2023-01-02T13:44:23.389Z,73.82519531
2023-01-02T13:45:17.808Z,74.20117188
2023-01-02T13:46:53.147Z,74.53417969
2023-01-02T13:47:01.013Z,74.53417969
2023-01-02T13:47:01.511Z,74.53417969
2023-01-02T13:47:11.033Z,74.65527344
2023-01-02T13:48:10.455Z,74.81835938
2023-01-02T13:49:05.645Z,74.96191406
2023-01-02T13:50:04.028Z,75.54492188
2023-01-02T13:50:57.561Z,76.08300781
2023-01-02T13:51:56.549Z,76.38671875
2023-01-02T13:52:53.182Z,77.0234375
2023-01-02T13:53:53.616Z,76.71289063
2023-01-02T13:54:52.709Z,76.78320313
2023-01-02T13:55:53.154Z,77.41894531
2023-01-02T13:56:49.507Z,77.75683594
2023-01-02T13:58:45.341Z,78.15722656
2023-01-02T13:59:50.250Z,78.56445313
2023-01-02T14:00:41.767Z,78.09375
2023-01-02T14:01:40.280Z,78.01464844
2023-01-02T14:02:38.956Z,78.09375
2023-01-02T14:03:39.698Z,78.91210938
2023-01-02T14:04:33.939Z,78.60742188
2023-01-02T14:05:34.957Z,78.4140625
2023-01-02T14:06:27.248Z,78.890625
2023-01-02T14:08:28.942Z,78.69921875
2023-01-02T14:09:26.469Z,79.19042969
2023-01-02T14:10:24.280Z,78.24902344
2023-01-02T14:11:17.104Z,78.41699219
2023-01-02T14:13:13.057Z,78.60546875
2023-01-02T14:14:11.198Z,78.68066406
2023-01-02T14:16:17.006Z,78.58984375
2023-01-02T14:16:36.758Z,78.27148438
2023-01-02T14:18:32.358Z,77.53222656
2023-01-02T14:19:31.750Z,77.00195313
2023-01-02T14:20:31.836Z,77.859375
2023-01-02T14:21:31.898Z,77.67480469
2023-01-02T14:23:31.735Z,77.61621094
2023-01-02T14:24:29.494Z,78.27636719
2023-01-02T14:24:30.353Z,78.27636719
2023-01-02T14:25:25.498Z,77.67089844
2023-01-02T14:26:20.764Z,78.26171875
2023-01-02T14:28:14.705Z,78.70019531
2023-01-02T14:29:18.161Z,78.39257813
2023-01-02T14:30:10.707Z,78.86230469
2023-01-02T14:31:09.928Z,78.57226563
2023-01-02T14:32:10.195Z,78.38183594
2023-01-02T14:33:10.018Z,78.74511719
2023-01-02T14:34:07.146Z,79.09570313
2023-01-02T14:35:09.379Z,79.97460938
2023-01-02T14:36:05.270Z,79.23339844
2023-01-02T14:38:04.231Z,79.24707031
2023-01-02T14:39:05.127Z,79.56542969
2023-01-02T14:40:01.201Z,79.50976563
2023-01-02T14:41:02.218Z,79.63183594
2023-01-02T14:43:02.917Z,79.99316406
2023-01-02T14:43:59.144Z,79.71289063
2023-01-02T14:44:58.649Z,80.03125
2023-01-02T14:45:54.080Z,80.30761719
2023-01-02T14:46:54.897Z,80.48730469
2023-01-02T14:47:48.201Z,80.34179688
2023-01-02T14:48:51.825Z,80.38964844
2023-01-02T14:49:47.623Z,79.68359375
2023-01-02T14:50:48.040Z,79.80761719
2023-01-02T14:51:47.134Z,79.63769531
2023-01-02T14:52:42.192Z,79.35449219
2023-01-02T14:53:51.509Z,80.17675781
2023-01-02T14:54:49.204Z,80.18945313
2023-01-02T14:55:50.071Z,79.98632813
2023-01-02T14:56:45.543Z,79.83886719
2023-01-02T14:58:49.037Z,79.69921875
2023-01-02T14:59:41.565Z,79.68554688
2023-01-02T15:00:45.670Z,80.27832031
2023-01-02T15:01:44.429Z,80.24511719
2023-01-02T15:04:27.148Z,79.06933594
2023-01-02T15:06:44.859Z,76.90527344
2023-01-02T15:08:27.201Z,76.42480469
2023-01-02T15:09:30.694Z,76.75878906
2023-01-02T15:10:27.045Z,76.56347656
2023-01-02T15:11:27.734Z,77.10839844
2023-01-02T15:12:25.078Z,77.41601563
2023-01-02T15:13:23.836Z,78.31933594
2023-01-02T15:14:23.619Z,78.16503906
2023-01-02T15:15:22.805Z,78.50585938
2023-01-02T15:16:18.095Z,77.93945313
2023-01-02T15:17:23.973Z,78.47949219
2023-01-02T15:18:20.147Z,78.23046875
2023-01-02T18:02:09.542Z,64.25683594
2023-01-02T18:03:33.467Z,64.9765625
2023-01-02T18:04:35.992Z,66.17480469
2023-01-02T18:05:31.288Z,67.44042969
2023-01-02T18:06:29.925Z,68.14257813
2023-01-02T18:08:19.966Z,70.62402344
2023-01-02T18:09:11.898Z,71.32324219
2023-01-02T18:10:12.569Z,71.93652344
2023-01-02T18:10:19.413Z,71.93652344
2023-01-02T18:10:20.776Z,71.93652344
2023-01-02T18:11:05.837Z,72.14355469
2023-01-02T18:11:58.395Z,72.80957031
2023-01-02T18:13:50.629Z,73.75683594
2023-01-02T18:14:47.319Z,73.95605469
2023-01-02T18:15:48.530Z,74.87011719
2023-01-02T18:16:49.727Z,75.77929688
2023-01-02T18:18:36.895Z,76.59765625
2023-01-02T18:19:29.635Z,76.70019531
2023-01-02T18:20:28.081Z,76.93261719
2023-01-02T18:21:23.738Z,77.80273438
2023-01-02T18:23:12.309Z,78.2109375
2023-01-02T18:24:07.193Z,78.18554688
2023-01-02T18:25:04.193Z,78.75683594
2023-01-02T18:26:10.916Z,78.69140625
2023-01-02T18:27:00.433Z,78.91113281
2023-01-02T18:28:01.734Z,79.0859375
2023-01-02T18:29:09.812Z,79.10351563
2023-01-02T18:29:10.233Z,79.10351563
2023-01-02T18:30:02.863Z,79.15820313
2023-01-02T18:30:55.396Z,79.33300781
2023-01-02T18:31:58.256Z,79.53222656
2023-01-02T18:32:48.831Z,79.33007813
2023-01-02T18:33:44.519Z,79.61621094
2023-01-02T18:34:48.203Z,79.65332031
2023-01-02T18:34:50.304Z,79.65332031
2023-01-02T18:35:58.069Z,79.4375
2023-01-02T18:35:58.818Z,79.4375
2023-01-02T18:36:42.707Z,79.36425781
2023-01-02T18:37:43.864Z,79.52148438
2023-01-02T18:38:40.309Z,79.26269531
2023-01-02T18:39:32.735Z,78.88769531
2023-01-02T18:40:34.898Z,79.33886719
2023-01-02T18:41:27.360Z,79.72265625
2023-01-02T18:43:18.458Z,79.66699219
2023-01-02T18:44:13.146Z,80.12011719
2023-01-02T18:45:12.044Z,79.93847656
2023-01-02T18:46:09.891Z,80.22558594
2023-01-02T18:47:09.455Z,80.10546875
2023-01-02T18:47:59.522Z,80.3828125
2023-01-02T18:48:59.354Z,80.54003906
2023-01-02T18:50:03.557Z,80.56054688
2023-01-02T18:51:02.814Z,80.68164063
2023-01-02T18:51:52.529Z,80.37109375
2023-01-02T18:53:29.327Z,80.35742188
2023-01-02T18:54:09.529Z,80.00878906
2023-01-02T18:55:12.943Z,79.87988281
2023-01-02T18:56:09.256Z,80.05664063
2023-01-02T18:57:08.521Z,80.23046875
2023-01-02T18:58:12.145Z,80.15820313
2023-01-02T18:59:06.429Z,80.5546875
2023-01-02T19:00:05.806Z,80.33984375
2023-01-02T19:01:01.502Z,80.50390625
2023-01-02T19:03:00.044Z,80.8203125
2023-01-02T19:04:00.411Z,80.89941406
2023-01-02T19:05:00.172Z,80.87597656
2023-01-02T19:05:55.041Z,81.37402344
2023-01-02T19:06:55.985Z,81.49511719
2023-01-02T19:07:54.269Z,81.20507813
2023-01-02T19:08:56.256Z,81.32714844
2023-01-02T19:09:52.637Z,81.20019531
2023-01-02T19:10:53.405Z,81.47851563
2023-01-02T19:11:49.793Z,81.50390625
2023-01-02T19:12:52.623Z,81.5234375
2023-01-02T19:13:55.214Z,81.55273438
2023-01-02T19:13:58.743Z,81.55273438
2023-01-02T19:14:48.271Z,81.43554688
2023-01-02T19:15:47.564Z,81.54101563
2023-01-02T19:16:44.135Z,81.37597656
2023-01-02T19:17:47.524Z,81.75488281
2023-01-02T19:18:44.228Z,81.54882813
2023-01-02T19:19:43.741Z,81.78710938
2023-01-02T19:20:38.182Z,81.875
2023-01-02T19:21:39.530Z,81.6484375
2023-01-02T19:23:36.731Z,82.37207031
2023-01-02T19:24:29.097Z,82.37011719
2023-01-02T19:26:19.547Z,82.15332031
2023-01-02T19:28:14.026Z,80.8203125
2023-01-02T19:29:10.654Z,80.05273438
2023-01-02T19:30:18.989Z,80.26464844
2023-01-02T19:30:20.925Z,80.26464844
2023-01-02T19:31:10.993Z,80.50195313
2023-01-02T19:32:08.069Z,80.53613281
2023-01-02T19:33:08.930Z,80.98535156
2023-01-02T19:34:05.690Z,81.06542969
2023-01-02T19:35:06.011Z,81.27441406
2023-01-02T19:36:01.325Z,81.24902344
2023-01-02T19:38:00.155Z,81.89648438
2023-01-02T19:38:59.249Z,81.84667969
2023-01-02T19:39:55.236Z,82.14746094
2023-01-02T19:40:54.387Z,81.77246094
2023-01-02T19:41:50.835Z,81.90527344
2023-01-02T19:42:50.657Z,81.94921875
2023-01-02T19:43:46.033Z,82.21679688
2023-01-02T19:44:49.092Z,82.41210938
2023-01-02T19:45:44.549Z,82.43261719
2023-01-02T19:46:46.667Z,82.0078125
2023-01-02T19:47:39.202Z,82.42382813
2023-01-02T19:48:40.343Z,82.3515625
2023-01-02T19:49:35.727Z,82.53515625
2023-01-02T19:50:36.962Z,82.22265625
2023-01-02T19:51:29.795Z,82.29296875
2023-01-02T19:52:31.568Z,82.33007813
2023-01-02T19:53:24.086Z,82.28710938
2023-01-02T19:54:27.496Z,82.16308594
2023-01-02T19:55:19.829Z,82.14257813
2023-01-02T19:56:20.013Z,82.203125
2023-01-02T19:58:23.463Z,82.0234375
2023-01-02T19:59:19.625Z,82.01269531
2023-01-02T20:00:21.600Z,81.94921875
2023-01-02T20:01:14.283Z,82.08300781
2023-01-02T20:03:12.665Z,82.12890625
2023-01-02T20:04:21.048Z,82.07714844
2023-01-02T20:05:22.644Z,81.90820313
2023-01-02T20:06:20.124Z,81.85058594
2023-01-02T20:07:16.620Z,82.02441406
2023-01-02T20:08:14.173Z,82.21972656
2023-01-02T20:09:15.581Z,82.20410156
2023-01-02T20:10:12.398Z,82.19433594
2023-01-02T20:11:16.868Z,82.20703125
2023-01-02T20:12:08.752Z,82.5
2023-01-02T20:13:13.023Z,82.26953125
2023-01-02T20:14:05.415Z,82.22851563
2023-01-02T20:15:07.547Z,82.39550781
2023-01-02T20:16:04.633Z,82.37304688
2023-01-02T20:18:22.641Z,82.11523438
2023-01-02T20:19:19.782Z,80.99804688
2023-01-02T20:20:18.551Z,80.01171875
2023-01-02T20:21:18.574Z,79.49707031
2023-01-02T20:23:16.566Z,79.63085938
2023-01-02T20:24:11.816Z,79.85546875
2023-01-02T20:25:12.858Z,80.3125
2023-01-02T20:26:08.971Z,80.63769531
2023-01-02T20:28:05.405Z,80.98925781
2023-01-02T20:29:04.798Z,80.98730469
2023-01-02T20:30:03.816Z,81.05957031
2023-01-02T20:30:59.016Z,81.09863281
2023-01-02T20:32:00.277Z,81.40820313
2023-01-02T20:32:52.650Z,81.23828125
2023-01-02T20:33:54.355Z,81.26074219
2023-01-02T20:34:47.116Z,81.58300781
2023-01-02T20:35:49.016Z,81.515625
2023-01-02T20:36:45.893Z,81.67089844
2023-01-02T20:37:46.830Z,81.54882813
2023-01-02T20:38:52.707Z,81.91894531
2023-01-02T20:39:54.980Z,81.75390625
2023-01-02T20:40:49.319Z,81.81738281
2023-01-02T20:41:51.100Z,81.81738281
2023-01-02T20:42:48.938Z,81.33496094
2023-01-02T20:43:50.099Z,81.25488281
2023-01-02T20:44:44.446Z,81.36523438
2023-01-02T20:45:46.678Z,81.43945313
2023-01-02T20:46:38.629Z,81.421875
2023-01-02T20:47:39.995Z,81.5234375
2023-01-02T20:48:38.214Z,81.6015625
2023-01-02T20:49:40.111Z,81.51660156
2023-01-02T20:50:34.437Z,81.54101563
2023-01-02T20:51:37.058Z,81.52246094
2023-01-02T20:53:36.317Z,81.37402344
2023-01-02T20:54:39.075Z,81.66113281
2023-01-02T20:55:36.671Z,81.39453125
2023-01-02T20:56:36.651Z,81.22753906
2023-01-02T20:57:33.057Z,81.14648438
2023-01-02T20:58:34.242Z,81.45019531
2023-01-02T20:59:28.901Z,81.73632813
2023-01-02T21:00:30.882Z,81.55957031
2023-01-02T21:01:26.803Z,81.47558594
2023-01-02T21:02:25.849Z,81.71289063
2023-01-02T21:03:24.871Z,81.84570313
2023-01-02T21:05:26.207Z,81.875
2023-01-02T21:05:53.996Z,82.00292969
2023-01-02T21:06:57.491Z,81.24023438
2023-01-02T21:08:55.795Z,80.40039063
2023-01-02T21:09:53.989Z,80.74316406
2023-01-02T21:10:48.415Z,80.25
2023-01-02T21:11:48.052Z,80.53710938
2023-01-02T21:12:44.436Z,80.84960938
2023-01-02T21:13:45.904Z,80.88085938
2023-01-02T21:14:43.204Z,80.46191406
2023-01-02T21:15:42.664Z,81.02246094
2023-01-02T21:16:54.728Z,80.75292969
2023-01-02T21:17:56.618Z,80.3046875
2023-01-02T21:18:48.664Z,80.56152344
2023-01-02T21:19:50.832Z,80.5078125
2023-01-02T21:20:47.631Z,80.71582031
2023-01-02T21:21:42.964Z,80.77148438
2023-01-02T21:23:41.101Z,80.51855469
2023-01-02T21:24:40.534Z,81.00585938
2023-01-02T21:25:34.910Z,80.58007813
2023-01-02T21:26:35.302Z,80.70605469
2023-01-02T21:28:32.759Z,81.22558594
2023-01-02T21:29:25.420Z,80.89648438
2023-01-02T21:30:37.282Z,80.43457031
2023-01-02T21:31:40.471Z,80.56640625
2023-01-02T21:32:37.809Z,80.87011719
2023-01-02T21:33:37.827Z,80.65722656
2023-01-02T21:34:38.084Z,80.98925781
2023-01-02T21:36:30.297Z,80.97167969
2023-01-02T21:36:50.638Z,80.90820313
2023-01-02T21:37:49.831Z,80.1171875
2023-01-02T21:38:56.802Z,79.3203125
2023-01-02T21:39:54.980Z,79.57324219
2023-01-02T21:40:55.315Z,79.67089844
2023-01-02T21:41:55.885Z,80.18066406
2023-01-02T21:43:51.414Z,80.24121094
2023-01-02T21:44:54.155Z,80.11132813
2023-01-02T21:45:46.999Z,80.40917969
2023-01-02T21:46:50.574Z,80.3125
2023-01-02T21:48:51.892Z,80.29492188
2023-01-02T21:49:48.692Z,79.98242188
2023-01-02T21:50:51.121Z,79.859375
2023-01-02T21:51:43.485Z,79.69433594
2023-01-02T21:53:41.473Z,79.45117188
2023-01-02T21:54:36.232Z,79.65039063
2023-01-02T21:55:35.736Z,79.38476563
2023-01-02T21:56:34.685Z,79.37011719
2023-01-02T21:58:02.737Z,79.63964844
2023-01-02T21:58:11.119Z,79.63964844
2023-01-02T21:58:11.474Z,79.63964844
2023-01-02T21:58:33.524Z,79.38574219
2023-01-02T21:59:32.986Z,78.82519531
2023-01-02T22:00:28.336Z,79.01367188
2023-01-02T22:01:29.047Z,78.71191406
2023-01-02T22:02:32.813Z,78.765625
2023-01-02T22:02:36.759Z,78.765625
2023-01-02T22:02:38.669Z,78.765625
2023-01-02T22:03:25.959Z,78.21386719
2023-01-02T22:04:22.275Z,78.50976563
2023-01-02T22:05:21.852Z,78.41699219
2023-01-02T22:06:19.538Z,78.68945313
2023-01-02T22:08:18.736Z,79.05566406
2023-01-02T22:09:17.981Z,79.05078125
2023-01-02T22:10:18.499Z,79.24121094
2023-01-02T22:11:20.689Z,79.6484375
2023-01-02T22:12:15.890Z,79.68652344
2023-01-02T22:13:19.268Z,80.03515625
2023-01-02T22:14:12.222Z,79.97460938
2023-01-02T22:15:22.873Z,79.87695313
2023-01-02T22:16:20.850Z,80.41992188
2023-01-02T22:18:18.797Z,80.47265625
2023-01-02T22:19:22.891Z,80.66992188
2023-01-02T22:20:22.915Z,80.61230469
2023-01-02T22:21:22.082Z,80.46972656
2023-01-02T22:23:49.353Z,80.75292969
2023-01-02T22:24:39.128Z,80.7265625
2023-01-02T22:24:44.253Z,80.7265625
2023-01-02T22:24:44.988Z,80.7265625
2023-01-02T22:25:35.553Z,80.40234375
2023-01-02T22:26:33.007Z,80.09863281
2023-01-02T22:27:39.242Z,80.20214844
2023-01-02T22:28:38.648Z,80.37597656
2023-01-02T22:30:18.645Z,80.37207031
2023-01-02T22:30:20.495Z,80.37207031
2023-01-02T22:30:42.367Z,80.57617188
2023-01-02T22:31:41.666Z,79.78613281
2023-01-02T22:32:54.566Z,80.09863281
2023-01-02T22:33:57.814Z,80.22167969
2023-01-02T22:34:53.158Z,80.3515625
2023-01-02T22:35:54.975Z,80.22460938
2023-01-02T22:36:57.828Z,80.29882813
2023-01-02T22:39:27.551Z,80.3671875
2023-01-02T22:39:28.080Z,80.3671875
2023-01-02T22:39:29.557Z,80.3671875
2023-01-02T22:40:08.119Z,80.01367188
2023-01-02T22:41:08.015Z,80.38964844
2023-01-02T22:42:03.166Z,79.93554688
2023-01-02T22:43:06.312Z,80.03613281
2023-01-02T22:44:02.832Z,79.8046875
2023-01-02T22:45:03.861Z,80.06835938
2023-01-02T22:46:00.490Z,80.13574219
2023-01-02T22:47:04.544Z,80.24023438
2023-01-02T22:49:04.249Z,80.21582031
2023-01-02T22:50:11.810Z,80.57714844
2023-01-02T22:50:12.513Z,80.57714844
2023-01-02T22:51:07.247Z,80.67871094
2023-01-02T22:53:13.420Z,80.79101563
2023-01-02T22:54:14.499Z,80.51171875
2023-01-02T22:55:10.251Z,80.58203125
2023-01-02T22:56:07.646Z,80.39257813
2023-01-02T22:58:06.290Z,80.47851563
2023-01-02T22:59:11.652Z,80.375
2023-01-02T23:00:06.933Z,80.37988281
2023-01-02T23:01:23.662Z,80.6171875
2023-01-02T23:03:18.446Z,80.18261719
2023-01-02T23:04:13.259Z,80.72167969
2023-01-02T23:05:15.319Z,80.45410156
2023-01-02T23:06:18.456Z,80.26464844
2023-01-02T23:06:22.237Z,80.26464844
2023-01-02T23:09:04.531Z,80.10546875
2023-01-02T23:10:06.180Z,79.83203125
2023-01-02T23:11:02.813Z,79.68847656
2023-01-02T23:12:04.021Z,80.01269531
2023-01-02T23:14:02.636Z,80.2734375
2023-01-02T23:14:57.350Z,80.33691406
2023-01-02T23:16:30.200Z,80.15234375
2023-01-02T23:18:08.880Z,79.73046875
2023-01-02T23:19:07.476Z,79.94726563
2023-01-02T23:20:02.968Z,80.16699219
2023-01-02T23:21:02.574Z,80.21386719
2023-01-02T23:22:00.636Z,80.56445313
2023-01-02T23:23:59.918Z,81.06933594
2023-01-02T23:24:59.032Z,81.02929688
2023-01-02T23:25:55.530Z,81.09277344
2023-01-02T23:27:01.697Z,81.1640625
2023-01-02T23:29:08.000Z,81.44433594
2023-01-02T23:29:09.118Z,81.44433594
2023-01-02T23:29:56.696Z,81.60644531
2023-01-02T23:30:57.918Z,81.78515625
2023-01-02T23:32:00.569Z,81.30664063
2023-01-02T23:34:02.107Z,81.82421875
2023-01-02T23:34:57.340Z,81.72363281
2023-01-02T23:35:56.375Z,81.93164063
2023-01-02T23:36:51.619Z,81.92871094
2023-01-02T23:38:51.461Z,82.17773438
2023-01-02T23:39:52.858Z,82.1796875
2023-01-02T23:40:48.074Z,82.42871094
2023-01-02T23:41:50.748Z,82.09765625
2023-01-02T23:43:54.851Z,82.1796875
2023-01-02T23:44:49.338Z,81.62304688
2023-01-02T23:46:01.311Z,81.74707031
2023-01-02T23:46:57.226Z,81.80273438
2023-01-02T23:48:52.332Z,81.58300781
2023-01-02T23:49:58.888Z,81.49414063
2023-01-02T23:50:52.753Z,81.05273438
2023-01-02T23:51:54.663Z,81.08203125
2023-01-02T23:52:47.521Z,80.95996094
2023-01-02T23:53:50.211Z,80.77832031
2023-01-02T23:54:42.753Z,81.0625
2023-01-02T23:55:49.979Z,80.72265625
2023-01-02T23:56:42.553Z,80.984375
2023-01-02T23:57:41.941Z,81.17285156
2023-01-02T23:59:31.327Z,81.23925781
2023-01-02T23:59:53.407Z,80.99902344
